sensor_id;sensor_type;location;lat;lon;timestamp;P1;durP1;ratioP1;P2;durP2;ratioP2
35632;SDS011;21754;48.216;-1.628;2023-09-18T00:02:20;3.60;;;2.00;;
35632;SDS011;21754;48.216;-1.628;2023-09-18T00:04:46;3.63;;;2.05;;
35632;SDS011;21754;48.216;-1.628;2023-09-18T00:07:13;2.25;;;1.77;;
35632;SDS011;21754;48.216;-1.628;2023-09-18T00:09:39;2.63;;;1.65;;
35632;SDS011;21754;48.216;-1.628;2023-09-18T00:12:05;6.13;;;1.88;;
35632;SDS011;21754;48.216;-1.628;2023-09-18T00:14:31;5.70;;;2.22;;
35632;SDS011;21754;48.216;-1.628;2023-09-18T00:16:57;4.78;;;1.95;;
35632;SDS011;21754;48.216;-1.628;2023-09-18T00:19:24;3.35;;;2.30;;
35632;SDS011;21754;48.216;-1.628;2023-09-18T00:21:50;2.75;;;1.77;;
35632;SDS011;21754;48.216;-1.628;2023-09-18T00:24:17;3.65;;;2.08;;
35632;SDS011;21754;48.216;-1.628;2023-09-18T00:26:43;9.00;;;2.42;;
35632;SDS011;21754;48.216;-1.628;2023-09-18T00:29:11;6.65;;;1.98;;
35632;SDS011;21754;48.216;-1.628;2023-09-18T00:31:38;6.38;;;3.15;;
35632;SDS011;21754;48.216;-1.628;2023-09-18T00:34:03;3.22;;;1.98;;
35632;SDS011;21754;48.216;-1.628;2023-09-18T00:36:29;6.20;;;2.13;;
35632;SDS011;21754;48.216;-1.628;2023-09-18T00:38:55;3.83;;;2.22;;
35632;SDS011;21754;48.216;-1.628;2023-09-18T00:41:21;2.65;;;2.45;;
35632;SDS011;21754;48.216;-1.628;2023-09-18T00:43:47;6.32;;;2.20;;
35632;SDS011;21754;48.216;-1.628;2023-09-18T00:46:13;8.50;;;2.85;;
35632;SDS011;21754;48.216;-1.628;2023-09-18T00:48:39;3.45;;;2.25;;
35632;SDS011;21754;48.216;-1.628;2023-09-18T00:51:06;7.45;;;2.40;;
35632;SDS011;21754;48.216;-1.628;2023-09-18T00:53:33;2.70;;;2.35;;
35632;SDS011;21754;48.216;-1.628;2023-09-18T00:56:00;6.20;;;2.90;;
35632;SDS011;21754;48.216;-1.628;2023-09-18T00:58:28;5.38;;;2.20;;
35632;SDS011;21754;48.216;-1.628;2023-09-18T01:00:54;3.47;;;1.70;;
35632;SDS011;21754;48.216;-1.628;2023-09-18T01:03:20;4.35;;;2.33;;
35632;SDS011;21754;48.216;-1.628;2023-09-18T01:05:46;4.50;;;2.20;;
35632;SDS011;21754;48.216;-1.628;2023-09-18T01:08:13;12.75;;;3.20;;
35632;SDS011;21754;48.216;-1.628;2023-09-18T01:10:50;7.07;;;2.53;;
35632;SDS011;21754;48.216;-1.628;2023-09-18T01:13:21;7.47;;;2.30;;
35632;SDS011;21754;48.216;-1.628;2023-09-18T01:15:54;3.15;;;2.83;;
35632;SDS011;21754;48.216;-1.628;2023-09-18T01:18:20;10.27;;;4.85;;
35632;SDS011;21754;48.216;-1.628;2023-09-18T01:20:46;3.28;;;2.83;;
35632;SDS011;21754;48.216;-1.628;2023-09-18T01:23:12;5.20;;;2.63;;
35632;SDS011;21754;48.216;-1.628;2023-09-18T01:25:38;4.53;;;3.13;;
35632;SDS011;21754;48.216;-1.628;2023-09-18T01:28:04;5.57;;;2.90;;
35632;SDS011;21754;48.216;-1.628;2023-09-18T01:30:30;7.13;;;2.67;;
35632;SDS011;21754;48.216;-1.628;2023-09-18T01:32:57;4.72;;;3.05;;
35632;SDS011;21754;48.216;-1.628;2023-09-18T01:35:23;5.17;;;3.70;;
35632;SDS011;21754;48.216;-1.628;2023-09-18T01:37:55;7.50;;;2.63;;
35632;SDS011;21754;48.216;-1.628;2023-09-18T01:40:21;9.43;;;3.15;;
35632;SDS011;21754;48.216;-1.628;2023-09-18T01:42:48;3.97;;;3.08;;
35632;SDS011;21754;48.216;-1.628;2023-09-18T01:45:14;5.60;;;2.90;;
35632;SDS011;21754;48.216;-1.628;2023-09-18T01:47:40;4.28;;;2.60;;
35632;SDS011;21754;48.216;-1.628;2023-09-18T01:50:06;7.22;;;3.00;;
35632;SDS011;21754;48.216;-1.628;2023-09-18T01:52:32;3.17;;;2.88;;
35632;SDS011;21754;48.216;-1.628;2023-09-18T01:55:01;10.98;;;3.45;;
35632;SDS011;21754;48.216;-1.628;2023-09-18T01:57:31;3.35;;;3.05;;
35632;SDS011;21754;48.216;-1.628;2023-09-18T01:59:57;6.90;;;3.53;;
35632;SDS011;21754;48.216;-1.628;2023-09-18T02:02:23;3.97;;;2.75;;
35632;SDS011;21754;48.216;-1.628;2023-09-18T02:04:49;9.75;;;3.97;;
35632;SDS011;21754;48.216;-1.628;2023-09-18T02:07:15;7.68;;;3.08;;
35632;SDS011;21754;48.216;-1.628;2023-09-18T02:09:41;8.02;;;3.10;;
35632;SDS011;21754;48.216;-1.628;2023-09-18T02:12:07;3.42;;;3.03;;
35632;SDS011;21754;48.216;-1.628;2023-09-18T02:14:33;3.17;;;2.55;;
35632;SDS011;21754;48.216;-1.628;2023-09-18T02:16:59;9.60;;;3.20;;
35632;SDS011;21754;48.216;-1.628;2023-09-18T02:19:25;4.95;;;2.85;;
35632;SDS011;21754;48.216;-1.628;2023-09-18T02:21:51;3.15;;;2.85;;
35632;SDS011;21754;48.216;-1.628;2023-09-18T02:24:17;5.75;;;3.53;;
35632;SDS011;21754;48.216;-1.628;2023-09-18T02:26:44;8.38;;;2.75;;
35632;SDS011;21754;48.216;-1.628;2023-09-18T02:29:10;8.48;;;3.15;;
35632;SDS011;21754;48.216;-1.628;2023-09-18T02:31:38;7.22;;;2.58;;
35632;SDS011;21754;48.216;-1.628;2023-09-18T02:34:04;8.02;;;3.70;;
35632;SDS011;21754;48.216;-1.628;2023-09-18T02:36:32;3.75;;;3.10;;
35632;SDS011;21754;48.216;-1.628;2023-09-18T02:38:58;5.63;;;3.97;;
35632;SDS011;21754;48.216;-1.628;2023-09-18T02:41:24;4.13;;;2.70;;
35632;SDS011;21754;48.216;-1.628;2023-09-18T02:43:50;4.13;;;3.00;;
35632;SDS011;21754;48.216;-1.628;2023-09-18T02:46:16;5.13;;;3.10;;
35632;SDS011;21754;48.216;-1.628;2023-09-18T02:48:42;5.63;;;2.40;;
35632;SDS011;21754;48.216;-1.628;2023-09-18T02:51:08;4.78;;;3.03;;
35632;SDS011;21754;48.216;-1.628;2023-09-18T02:53:34;4.50;;;3.35;;
35632;SDS011;21754;48.216;-1.628;2023-09-18T02:56:01;6.82;;;3.15;;
35632;SDS011;21754;48.216;-1.628;2023-09-18T02:58:27;7.63;;;3.60;;
35632;SDS011;21754;48.216;-1.628;2023-09-18T03:00:55;8.50;;;3.25;;
35632;SDS011;21754;48.216;-1.628;2023-09-18T03:03:25;5.20;;;3.38;;
35632;SDS011;21754;48.216;-1.628;2023-09-18T03:05:51;8.63;;;3.22;;
35632;SDS011;21754;48.216;-1.628;2023-09-18T03:08:17;18.38;;;3.63;;
35632;SDS011;21754;48.216;-1.628;2023-09-18T03:10:43;3.88;;;3.35;;
35632;SDS011;21754;48.216;-1.628;2023-09-18T03:13:10;5.47;;;3.80;;
35632;SDS011;21754;48.216;-1.628;2023-09-18T03:15:36;11.95;;;3.47;;
35632;SDS011;21754;48.216;-1.628;2023-09-18T03:18:03;7.60;;;4.15;;
35632;SDS011;21754;48.216;-1.628;2023-09-18T03:20:29;11.38;;;4.32;;
35632;SDS011;21754;48.216;-1.628;2023-09-18T03:22:56;10.95;;;5.35;;
35632;SDS011;21754;48.216;-1.628;2023-09-18T03:25:23;16.95;;;4.25;;
35632;SDS011;21754;48.216;-1.628;2023-09-18T03:27:52;5.32;;;3.67;;
35632;SDS011;21754;48.216;-1.628;2023-09-18T03:30:19;4.15;;;3.63;;
35632;SDS011;21754;48.216;-1.628;2023-09-18T03:32:45;9.35;;;3.80;;
35632;SDS011;21754;48.216;-1.628;2023-09-18T03:35:13;5.72;;;3.65;;
35632;SDS011;21754;48.216;-1.628;2023-09-18T03:37:48;4.40;;;4.05;;
35632;SDS011;21754;48.216;-1.628;2023-09-18T03:40:15;5.80;;;4.07;;
35632;SDS011;21754;48.216;-1.628;2023-09-18T03:42:41;5.90;;;3.67;;
35632;SDS011;21754;48.216;-1.628;2023-09-18T03:45:07;6.93;;;3.78;;
35632;SDS011;21754;48.216;-1.628;2023-09-18T03:47:34;19.77;;;4.07;;
35632;SDS011;21754;48.216;-1.628;2023-09-18T03:50:01;4.97;;;3.20;;
35632;SDS011;21754;48.216;-1.628;2023-09-18T03:52:27;4.93;;;3.05;;
35632;SDS011;21754;48.216;-1.628;2023-09-18T03:54:53;3.75;;;3.45;;
35632;SDS011;21754;48.216;-1.628;2023-09-18T03:57:19;12.70;;;3.42;;
35632;SDS011;21754;48.216;-1.628;2023-09-18T03:59:45;5.55;;;3.85;;
35632;SDS011;21754;48.216;-1.628;2023-09-18T04:02:11;7.38;;;3.25;;
35632;SDS011;21754;48.216;-1.628;2023-09-18T04:04:37;4.85;;;4.10;;
35632;SDS011;21754;48.216;-1.628;2023-09-18T04:07:06;5.50;;;3.60;;
35632;SDS011;21754;48.216;-1.628;2023-09-18T04:09:32;8.98;;;3.55;;
35632;SDS011;21754;48.216;-1.628;2023-09-18T04:12:02;3.45;;;3.15;;
35632;SDS011;21754;48.216;-1.628;2023-09-18T04:14:30;9.02;;;3.15;;
35632;SDS011;21754;48.216;-1.628;2023-09-18T04:16:56;4.13;;;3.65;;
35632;SDS011;21754;48.216;-1.628;2023-09-18T04:19:22;6.60;;;3.80;;
35632;SDS011;21754;48.216;-1.628;2023-09-18T04:21:48;8.02;;;4.30;;
35632;SDS011;21754;48.216;-1.628;2023-09-18T04:24:14;6.43;;;4.05;;
35632;SDS011;21754;48.216;-1.628;2023-09-18T04:26:40;3.72;;;3.42;;
35632;SDS011;21754;48.216;-1.628;2023-09-18T04:29:06;10.52;;;4.20;;
35632;SDS011;21754;48.216;-1.628;2023-09-18T04:31:32;7.95;;;3.90;;
35632;SDS011;21754;48.216;-1.628;2023-09-18T04:33:58;6.78;;;4.32;;
35632;SDS011;21754;48.216;-1.628;2023-09-18T04:36:24;4.80;;;4.40;;
35632;SDS011;21754;48.216;-1.628;2023-09-18T04:38:51;5.78;;;4.25;;
35632;SDS011;21754;48.216;-1.628;2023-09-18T04:41:17;4.38;;;3.97;;
35632;SDS011;21754;48.216;-1.628;2023-09-18T04:43:43;3.90;;;3.50;;
35632;SDS011;21754;48.216;-1.628;2023-09-18T04:46:09;4.75;;;4.18;;
35632;SDS011;21754;48.216;-1.628;2023-09-18T04:48:35;5.47;;;4.95;;
35632;SDS011;21754;48.216;-1.628;2023-09-18T04:51:01;8.77;;;4.32;;
35632;SDS011;21754;48.216;-1.628;2023-09-18T04:53:28;7.47;;;3.90;;
35632;SDS011;21754;48.216;-1.628;2023-09-18T04:55:54;5.38;;;4.65;;
35632;SDS011;21754;48.216;-1.628;2023-09-18T04:58:20;11.55;;;3.80;;
35632;SDS011;21754;48.216;-1.628;2023-09-18T05:00:47;6.28;;;3.78;;
35632;SDS011;21754;48.216;-1.628;2023-09-18T05:03:13;4.45;;;3.58;;
35632;SDS011;21754;48.216;-1.628;2023-09-18T05:05:39;4.40;;;4.00;;
35632;SDS011;21754;48.216;-1.628;2023-09-18T05:08:08;3.25;;;3.05;;
35632;SDS011;21754;48.216;-1.628;2023-09-18T05:10:34;6.00;;;4.07;;
35632;SDS011;21754;48.216;-1.628;2023-09-18T05:13:00;3.63;;;3.33;;
35632;SDS011;21754;48.216;-1.628;2023-09-18T05:17:54;6.03;;;3.67;;
35632;SDS011;21754;48.216;-1.628;2023-09-18T05:20:22;4.15;;;3.80;;
35632;SDS011;21754;48.216;-1.628;2023-09-18T05:22:53;4.05;;;3.67;;
35632;SDS011;21754;48.216;-1.628;2023-09-18T05:25:19;7.47;;;4.03;;
35632;SDS011;21754;48.216;-1.628;2023-09-18T05:27:46;4.93;;;3.85;;
35632;SDS011;21754;48.216;-1.628;2023-09-18T05:30:19;4.57;;;3.40;;
35632;SDS011;21754;48.216;-1.628;2023-09-18T05:32:46;6.22;;;3.75;;
35632;SDS011;21754;48.216;-1.628;2023-09-18T05:35:13;3.97;;;3.67;;
35632;SDS011;21754;48.216;-1.628;2023-09-18T05:37:40;4.05;;;3.17;;
35632;SDS011;21754;48.216;-1.628;2023-09-18T05:40:06;3.60;;;3.30;;
35632;SDS011;21754;48.216;-1.628;2023-09-18T05:42:36;7.75;;;3.60;;
35632;SDS011;21754;48.216;-1.628;2023-09-18T05:45:02;4.35;;;3.70;;
35632;SDS011;21754;48.216;-1.628;2023-09-18T05:47:34;5.05;;;3.40;;
35632;SDS011;21754;48.216;-1.628;2023-09-18T05:50:01;4.20;;;3.80;;
35632;SDS011;21754;48.216;-1.628;2023-09-18T05:52:29;4.43;;;4.03;;
35632;SDS011;21754;48.216;-1.628;2023-09-18T05:54:55;3.67;;;3.38;;
35632;SDS011;21754;48.216;-1.628;2023-09-18T05:57:21;8.40;;;3.50;;
35632;SDS011;21754;48.216;-1.628;2023-09-18T05:59:47;15.52;;;3.85;;
35632;SDS011;21754;48.216;-1.628;2023-09-18T06:02:13;4.38;;;3.97;;
35632;SDS011;21754;48.216;-1.628;2023-09-18T06:04:41;4.72;;;3.85;;
35632;SDS011;21754;48.216;-1.628;2023-09-18T06:07:08;8.57;;;3.67;;
35632;SDS011;21754;48.216;-1.628;2023-09-18T06:09:34;4.50;;;3.45;;
35632;SDS011;21754;48.216;-1.628;2023-09-18T06:12:00;4.88;;;3.80;;
35632;SDS011;21754;48.216;-1.628;2023-09-18T06:14:26;3.67;;;3.10;;
35632;SDS011;21754;48.216;-1.628;2023-09-18T06:16:52;8.73;;;3.47;;
35632;SDS011;21754;48.216;-1.628;2023-09-18T06:19:18;3.55;;;3.22;;
35632;SDS011;21754;48.216;-1.628;2023-09-18T06:21:44;3.38;;;3.08;;
35632;SDS011;21754;48.216;-1.628;2023-09-18T06:24:10;6.40;;;3.20;;
35632;SDS011;21754;48.216;-1.628;2023-09-18T06:26:37;7.63;;;4.30;;
35632;SDS011;21754;48.216;-1.628;2023-09-18T06:29:03;5.80;;;3.80;;
35632;SDS011;21754;48.216;-1.628;2023-09-18T06:31:30;6.43;;;3.40;;
35632;SDS011;21754;48.216;-1.628;2023-09-18T06:33:56;3.67;;;3.38;;
35632;SDS011;21754;48.216;-1.628;2023-09-18T06:36:22;3.88;;;3.58;;
35632;SDS011;21754;48.216;-1.628;2023-09-18T06:38:48;4.30;;;3.95;;
35632;SDS011;21754;48.216;-1.628;2023-09-18T06:41:14;3.50;;;3.22;;
35632;SDS011;21754;48.216;-1.628;2023-09-18T06:43:40;5.82;;;4.10;;
35632;SDS011;21754;48.216;-1.628;2023-09-18T06:46:07;5.20;;;3.83;;
35632;SDS011;21754;48.216;-1.628;2023-09-18T06:48:33;8.80;;;4.78;;
35632;SDS011;21754;48.216;-1.628;2023-09-18T06:50:59;4.13;;;3.65;;
35632;SDS011;21754;48.216;-1.628;2023-09-18T06:53:26;4.35;;;3.95;;
35632;SDS011;21754;48.216;-1.628;2023-09-18T06:55:55;3.90;;;3.53;;
35632;SDS011;21754;48.216;-1.628;2023-09-18T06:58:21;3.80;;;2.80;;
35632;SDS011;21754;48.216;-1.628;2023-09-18T07:00:47;3.40;;;3.10;;
35632;SDS011;21754;48.216;-1.628;2023-09-18T07:03:15;7.07;;;4.45;;
35632;SDS011;21754;48.216;-1.628;2023-09-18T07:05:42;7.28;;;2.92;;
35632;SDS011;21754;48.216;-1.628;2023-09-18T07:08:08;13.23;;;3.25;;
35632;SDS011;21754;48.216;-1.628;2023-09-18T07:10:37;5.78;;;4.03;;
35632;SDS011;21754;48.216;-1.628;2023-09-18T07:13:03;4.55;;;2.92;;
35632;SDS011;21754;48.216;-1.628;2023-09-18T07:15:29;4.38;;;3.13;;
35632;SDS011;21754;48.216;-1.628;2023-09-18T07:17:55;8.40;;;3.67;;
35632;SDS011;21754;48.216;-1.628;2023-09-18T07:20:21;5.82;;;3.38;;
35632;SDS011;21754;48.216;-1.628;2023-09-18T07:22:49;3.80;;;2.58;;
35632;SDS011;21754;48.216;-1.628;2023-09-18T07:25:15;7.18;;;3.00;;
35632;SDS011;21754;48.216;-1.628;2023-09-18T07:27:42;7.68;;;3.17;;
35632;SDS011;21754;48.216;-1.628;2023-09-18T07:30:11;6.97;;;3.17;;
35632;SDS011;21754;48.216;-1.628;2023-09-18T07:32:39;3.55;;;2.45;;
35632;SDS011;21754;48.216;-1.628;2023-09-18T07:35:08;6.88;;;2.97;;
35632;SDS011;21754;48.216;-1.628;2023-09-18T07:37:34;3.67;;;2.90;;
35632;SDS011;21754;48.216;-1.628;2023-09-18T07:40:01;5.72;;;3.35;;
35632;SDS011;21754;48.216;-1.628;2023-09-18T07:42:27;5.30;;;3.45;;
35632;SDS011;21754;48.216;-1.628;2023-09-18T07:44:53;5.25;;;2.55;;
35632;SDS011;21754;48.216;-1.628;2023-09-18T07:47:20;4.53;;;3.28;;
35632;SDS011;21754;48.216;-1.628;2023-09-18T07:49:46;4.18;;;1.98;;
35632;SDS011;21754;48.216;-1.628;2023-09-18T07:52:12;4.63;;;2.45;;
35632;SDS011;21754;48.216;-1.628;2023-09-18T07:54:38;4.97;;;2.15;;
35632;SDS011;21754;48.216;-1.628;2023-09-18T07:57:04;3.25;;;2.33;;
35632;SDS011;21754;48.216;-1.628;2023-09-18T07:59:34;3.40;;;2.53;;
35632;SDS011;21754;48.216;-1.628;2023-09-18T08:02:00;2.58;;;2.20;;
35632;SDS011;21754;48.216;-1.628;2023-09-18T08:04:26;2.47;;;2.28;;
35632;SDS011;21754;48.216;-1.628;2023-09-18T08:06:52;4.72;;;2.70;;
35632;SDS011;21754;48.216;-1.628;2023-09-18T08:09:18;4.05;;;2.30;;
35632;SDS011;21754;48.216;-1.628;2023-09-18T08:11:44;2.22;;;2.00;;
35632;SDS011;21754;48.216;-1.628;2023-09-18T08:14:10;2.38;;;1.75;;
35632;SDS011;21754;48.216;-1.628;2023-09-18T08:16:39;4.57;;;3.30;;
35632;SDS011;21754;48.216;-1.628;2023-09-18T08:19:05;4.63;;;2.33;;
35632;SDS011;21754;48.216;-1.628;2023-09-18T08:21:32;7.30;;;2.47;;
35632;SDS011;21754;48.216;-1.628;2023-09-18T08:23:58;2.03;;;1.80;;
35632;SDS011;21754;48.216;-1.628;2023-09-18T08:26:24;7.10;;;2.20;;
35632;SDS011;21754;48.216;-1.628;2023-09-18T08:28:52;5.72;;;2.58;;
35632;SDS011;21754;48.216;-1.628;2023-09-18T08:31:18;2.85;;;2.10;;
35632;SDS011;21754;48.216;-1.628;2023-09-18T08:33:44;1.67;;;1.58;;
35632;SDS011;21754;48.216;-1.628;2023-09-18T08:36:10;2.40;;;1.58;;
35632;SDS011;21754;48.216;-1.628;2023-09-18T08:38:37;2.85;;;1.65;;
35632;SDS011;21754;48.216;-1.628;2023-09-18T08:41:03;2.03;;;1.30;;
35632;SDS011;21754;48.216;-1.628;2023-09-18T08:43:31;4.45;;;1.67;;
35632;SDS011;21754;48.216;-1.628;2023-09-18T08:45:57;7.82;;;2.47;;
35632;SDS011;21754;48.216;-1.628;2023-09-18T08:48:28;2.58;;;1.60;;
35632;SDS011;21754;48.216;-1.628;2023-09-18T08:51:01;6.20;;;2.25;;
35632;SDS011;21754;48.216;-1.628;2023-09-18T08:53:28;1.77;;;1.33;;
35632;SDS011;21754;48.216;-1.628;2023-09-18T08:55:55;3.55;;;1.70;;
35632;SDS011;21754;48.216;-1.628;2023-09-18T08:58:23;4.57;;;1.50;;
35632;SDS011;21754;48.216;-1.628;2023-09-18T09:00:50;4.60;;;1.40;;
35632;SDS011;21754;48.216;-1.628;2023-09-18T09:03:16;3.72;;;2.10;;
35632;SDS011;21754;48.216;-1.628;2023-09-18T09:05:42;2.22;;;1.33;;
35632;SDS011;21754;48.216;-1.628;2023-09-18T09:08:08;3.40;;;1.88;;
35632;SDS011;21754;48.216;-1.628;2023-09-18T09:10:34;10.10;;;1.77;;
35632;SDS011;21754;48.216;-1.628;2023-09-18T09:13:00;6.43;;;1.27;;
35632;SDS011;21754;48.216;-1.628;2023-09-18T09:15:28;5.32;;;1.70;;
35632;SDS011;21754;48.216;-1.628;2023-09-18T09:18:02;2.03;;;1.58;;
35632;SDS011;21754;48.216;-1.628;2023-09-18T09:20:28;4.15;;;1.73;;
35632;SDS011;21754;48.216;-1.628;2023-09-18T09:22:55;1.60;;;1.00;;
35632;SDS011;21754;48.216;-1.628;2023-09-18T09:25:29;4.50;;;2.25;;
35632;SDS011;21754;48.216;-1.628;2023-09-18T09:27:57;1.48;;;1.20;;
35632;SDS011;21754;48.216;-1.628;2023-09-18T09:30:26;2.20;;;1.23;;
35632;SDS011;21754;48.216;-1.628;2023-09-18T09:32:53;6.85;;;1.83;;
35632;SDS011;21754;48.216;-1.628;2023-09-18T09:35:22;6.25;;;1.25;;
35632;SDS011;21754;48.216;-1.628;2023-09-18T09:37:49;3.85;;;1.70;;
35632;SDS011;21754;48.216;-1.628;2023-09-18T09:40:16;2.17;;;1.77;;
35632;SDS011;21754;48.216;-1.628;2023-09-18T09:42:44;4.78;;;1.15;;
35632;SDS011;21754;48.216;-1.628;2023-09-18T09:45:12;4.15;;;1.33;;
35632;SDS011;21754;48.216;-1.628;2023-09-18T09:47:39;5.70;;;1.35;;
35632;SDS011;21754;48.216;-1.628;2023-09-18T09:50:11;6.18;;;1.77;;
35632;SDS011;21754;48.216;-1.628;2023-09-18T09:52:45;1.73;;;1.10;;
35632;SDS011;21754;48.216;-1.628;2023-09-18T09:55:32;2.45;;;0.90;;
35632;SDS011;21754;48.216;-1.628;2023-09-18T09:58:03;3.03;;;1.33;;
35632;SDS011;21754;48.216;-1.628;2023-09-18T10:03:06;3.65;;;1.50;;
35632;SDS011;21754;48.216;-1.628;2023-09-18T10:05:37;4.07;;;1.10;;
35632;SDS011;21754;48.216;-1.628;2023-09-18T10:08:06;0.90;;;0.90;;
35632;SDS011;21754;48.216;-1.628;2023-09-18T10:10:35;1.02;;;1.00;;
35632;SDS011;21754;48.216;-1.628;2023-09-18T10:13:07;1.23;;;1.13;;
35632;SDS011;21754;48.216;-1.628;2023-09-18T10:15:34;3.13;;;0.98;;
35632;SDS011;21754;48.216;-1.628;2023-09-18T10:18:03;1.75;;;1.25;;
35632;SDS011;21754;48.216;-1.628;2023-09-18T10:20:33;2.15;;;1.63;;
35632;SDS011;21754;48.216;-1.628;2023-09-18T10:23:02;2.55;;;1.25;;
35632;SDS011;21754;48.216;-1.628;2023-09-18T10:25:30;2.67;;;1.17;;
35632;SDS011;21754;48.216;-1.628;2023-09-18T10:27:57;1.20;;;1.15;;
35632;SDS011;21754;48.216;-1.628;2023-09-18T10:30:28;4.93;;;1.50;;
35632;SDS011;21754;48.216;-1.628;2023-09-18T10:32:55;2.67;;;1.60;;
35632;SDS011;21754;48.216;-1.628;2023-09-18T10:35:24;1.48;;;1.27;;
35632;SDS011;21754;48.216;-1.628;2023-09-18T10:37:50;1.48;;;1.13;;
35632;SDS011;21754;48.216;-1.628;2023-09-18T10:40:19;1.83;;;1.33;;
35632;SDS011;21754;48.216;-1.628;2023-09-18T10:42:46;2.45;;;0.98;;
35632;SDS011;21754;48.216;-1.628;2023-09-18T10:45:12;2.05;;;1.35;;
35632;SDS011;21754;48.216;-1.628;2023-09-18T10:47:41;4.15;;;1.52;;
35632;SDS011;21754;48.216;-1.628;2023-09-18T10:52:35;4.40;;;1.63;;
35632;SDS011;21754;48.216;-1.628;2023-09-18T10:55:01;6.35;;;1.60;;
35632;SDS011;21754;48.216;-1.628;2023-09-18T10:57:34;10.52;;;1.52;;
35632;SDS011;21754;48.216;-1.628;2023-09-18T11:00:04;3.28;;;1.08;;
35632;SDS011;21754;48.216;-1.628;2023-09-18T11:02:39;2.40;;;1.25;;
35632;SDS011;21754;48.216;-1.628;2023-09-18T11:05:05;3.67;;;1.58;;
35632;SDS011;21754;48.216;-1.628;2023-09-18T11:07:32;2.88;;;1.85;;
35632;SDS011;21754;48.216;-1.628;2023-09-18T11:09:58;3.45;;;1.00;;
35632;SDS011;21754;48.216;-1.628;2023-09-18T11:12:41;2.03;;;1.67;;
35632;SDS011;21754;48.216;-1.628;2023-09-18T11:15:07;1.80;;;1.17;;
35632;SDS011;21754;48.216;-1.628;2023-09-18T11:17:38;3.25;;;1.08;;
35632;SDS011;21754;48.216;-1.628;2023-09-18T11:20:08;4.63;;;2.13;;
35632;SDS011;21754;48.216;-1.628;2023-09-18T11:22:39;3.90;;;1.30;;
35632;SDS011;21754;48.216;-1.628;2023-09-18T11:27:54;2.15;;;1.65;;
35632;SDS011;21754;48.216;-1.628;2023-09-18T11:30:20;3.22;;;1.23;;
35632;SDS011;21754;48.216;-1.628;2023-09-18T11:32:47;2.90;;;1.25;;
35632;SDS011;21754;48.216;-1.628;2023-09-18T11:35:13;4.85;;;1.38;;
35632;SDS011;21754;48.216;-1.628;2023-09-18T11:37:42;0.95;;;0.95;;
35632;SDS011;21754;48.216;-1.628;2023-09-18T11:40:30;1.08;;;0.98;;
35632;SDS011;21754;48.216;-1.628;2023-09-18T11:45:44;2.83;;;1.10;;
35632;SDS011;21754;48.216;-1.628;2023-09-18T11:48:15;1.95;;;1.00;;
35632;SDS011;21754;48.216;-1.628;2023-09-18T11:50:42;4.18;;;0.95;;
35632;SDS011;21754;48.216;-1.628;2023-09-18T11:53:09;2.33;;;1.73;;
35632;SDS011;21754;48.216;-1.628;2023-09-18T11:55:37;4.72;;;1.10;;
35632;SDS011;21754;48.216;-1.628;2023-09-18T12:00:29;2.90;;;0.90;;
35632;SDS011;21754;48.216;-1.628;2023-09-18T12:02:56;3.70;;;1.13;;
35632;SDS011;21754;48.216;-1.628;2023-09-18T12:05:26;2.92;;;2.28;;
35632;SDS011;21754;48.216;-1.628;2023-09-18T12:07:52;2.35;;;1.00;;
35632;SDS011;21754;48.216;-1.628;2023-09-18T12:10:19;2.35;;;0.98;;
35632;SDS011;21754;48.216;-1.628;2023-09-18T12:12:46;4.13;;;1.63;;
35632;SDS011;21754;48.216;-1.628;2023-09-18T12:15:13;2.33;;;1.20;;
35632;SDS011;21754;48.216;-1.628;2023-09-18T12:17:40;1.05;;;1.05;;
35632;SDS011;21754;48.216;-1.628;2023-09-18T12:20:06;6.93;;;1.52;;
35632;SDS011;21754;48.216;-1.628;2023-09-18T12:22:32;2.17;;;1.55;;
35632;SDS011;21754;48.216;-1.628;2023-09-18T12:25:14;1.00;;;1.00;;
35632;SDS011;21754;48.216;-1.628;2023-09-18T12:27:42;6.25;;;1.98;;
35632;SDS011;21754;48.216;-1.628;2023-09-18T12:30:08;1.80;;;1.58;;
35632;SDS011;21754;48.216;-1.628;2023-09-18T12:32:37;1.20;;;0.75;;
35632;SDS011;21754;48.216;-1.628;2023-09-18T12:35:05;0.98;;;0.90;;
35632;SDS011;21754;48.216;-1.628;2023-09-18T12:37:35;0.88;;;0.82;;
35632;SDS011;21754;48.216;-1.628;2023-09-18T12:40:05;2.65;;;1.70;;
35632;SDS011;21754;48.216;-1.628;2023-09-18T12:42:39;0.60;;;0.60;;
35632;SDS011;21754;48.216;-1.628;2023-09-18T12:45:08;3.70;;;1.45;;
35632;SDS011;21754;48.216;-1.628;2023-09-18T12:47:35;1.05;;;0.63;;
35632;SDS011;21754;48.216;-1.628;2023-09-18T12:50:07;1.15;;;0.80;;
35632;SDS011;21754;48.216;-1.628;2023-09-18T12:52:35;3.33;;;0.95;;
35632;SDS011;21754;48.216;-1.628;2023-09-18T12:55:01;4.40;;;0.85;;
35632;SDS011;21754;48.216;-1.628;2023-09-18T12:57:31;8.02;;;1.40;;
35632;SDS011;21754;48.216;-1.628;2023-09-18T12:59:57;1.15;;;1.05;;
35632;SDS011;21754;48.216;-1.628;2023-09-18T13:02:23;2.70;;;1.38;;
35632;SDS011;21754;48.216;-1.628;2023-09-18T13:04:53;3.55;;;0.88;;
35632;SDS011;21754;48.216;-1.628;2023-09-18T13:07:19;3.67;;;0.90;;
35632;SDS011;21754;48.216;-1.628;2023-09-18T13:15:06;1.95;;;1.02;;
35632;SDS011;21754;48.216;-1.628;2023-09-18T13:17:38;1.77;;;0.68;;
35632;SDS011;21754;48.216;-1.628;2023-09-18T13:20:24;5.78;;;1.35;;
35632;SDS011;21754;48.216;-1.628;2023-09-18T13:22:51;3.70;;;0.90;;
35632;SDS011;21754;48.216;-1.628;2023-09-18T13:25:21;2.28;;;1.25;;
35632;SDS011;21754;48.216;-1.628;2023-09-18T13:27:48;4.25;;;0.95;;
35632;SDS011;21754;48.216;-1.628;2023-09-18T13:30:14;1.85;;;1.15;;
35632;SDS011;21754;48.216;-1.628;2023-09-18T13:32:42;1.52;;;0.73;;
35632;SDS011;21754;48.216;-1.628;2023-09-18T13:35:09;0.85;;;0.73;;
35632;SDS011;21754;48.216;-1.628;2023-09-18T13:40:02;1.20;;;0.70;;
35632;SDS011;21754;48.216;-1.628;2023-09-18T13:42:31;4.97;;;0.90;;
35632;SDS011;21754;48.216;-1.628;2023-09-18T13:44:58;1.20;;;1.00;;
35632;SDS011;21754;48.216;-1.628;2023-09-18T13:47:29;2.15;;;0.85;;
35632;SDS011;21754;48.216;-1.628;2023-09-18T13:49:56;5.22;;;1.70;;
35632;SDS011;21754;48.216;-1.628;2023-09-18T13:52:23;2.13;;;0.85;;
35632;SDS011;21754;48.216;-1.628;2023-09-18T13:54:50;0.80;;;0.70;;
35632;SDS011;21754;48.216;-1.628;2023-09-18T13:57:17;1.23;;;0.70;;
35632;SDS011;21754;48.216;-1.628;2023-09-18T13:59:44;2.38;;;1.00;;
35632;SDS011;21754;48.216;-1.628;2023-09-18T14:02:10;3.30;;;1.17;;
35632;SDS011;21754;48.216;-1.628;2023-09-18T14:04:36;1.45;;;1.35;;
35632;SDS011;21754;48.216;-1.628;2023-09-18T14:07:02;2.53;;;1.00;;
35632;SDS011;21754;48.216;-1.628;2023-09-18T14:09:28;3.88;;;1.73;;
35632;SDS011;21754;48.216;-1.628;2023-09-18T14:11:55;1.38;;;0.80;;
35632;SDS011;21754;48.216;-1.628;2023-09-18T14:14:23;1.50;;;0.82;;
35632;SDS011;21754;48.216;-1.628;2023-09-18T14:16:50;1.65;;;1.08;;
35632;SDS011;21754;48.216;-1.628;2023-09-18T14:19:16;2.72;;;1.05;;
35632;SDS011;21754;48.216;-1.628;2023-09-18T14:21:42;4.65;;;1.73;;
35632;SDS011;21754;48.216;-1.628;2023-09-18T14:24:08;3.17;;;1.73;;
35632;SDS011;21754;48.216;-1.628;2023-09-18T14:26:35;1.15;;;1.05;;
35632;SDS011;21754;48.216;-1.628;2023-09-18T14:29:08;5.75;;;2.00;;
35632;SDS011;21754;48.216;-1.628;2023-09-18T14:31:38;5.78;;;1.50;;
35632;SDS011;21754;48.216;-1.628;2023-09-18T14:34:04;1.88;;;1.30;;
35632;SDS011;21754;48.216;-1.628;2023-09-18T14:36:33;5.00;;;0.98;;
35632;SDS011;21754;48.216;-1.628;2023-09-18T14:39:02;1.33;;;0.95;;
35632;SDS011;21754;48.216;-1.628;2023-09-18T14:41:28;5.10;;;1.20;;
35632;SDS011;21754;48.216;-1.628;2023-09-18T14:43:55;4.13;;;1.33;;
35632;SDS011;21754;48.216;-1.628;2023-09-18T14:46:23;3.88;;;1.98;;
35632;SDS011;21754;48.216;-1.628;2023-09-18T14:48:49;3.13;;;1.45;;
35632;SDS011;21754;48.216;-1.628;2023-09-18T14:51:16;1.10;;;0.98;;
35632;SDS011;21754;48.216;-1.628;2023-09-18T14:53:43;3.38;;;1.25;;
35632;SDS011;21754;48.216;-1.628;2023-09-18T14:56:09;1.92;;;1.15;;
35632;SDS011;21754;48.216;-1.628;2023-09-18T14:58:35;3.13;;;1.65;;